createdAt,value
2023-04-14T00:02:29.431Z,99.90
2023-04-14T00:06:11.412Z,99.90
2023-04-14T00:09:53.205Z,99.90
2023-04-14T00:13:35.018Z,99.90
2023-04-14T00:17:16.925Z,99.90
2023-04-14T00:20:58.825Z,99.90
2023-04-14T00:24:43.756Z,99.90
2023-04-14T00:28:25.518Z,99.90
2023-04-14T00:32:07.792Z,99.90
2023-04-14T00:35:49.583Z,99.90
2023-04-14T00:39:31.611Z,99.90
2023-04-14T00:43:13.405Z,99.90
2023-04-14T00:46:56.954Z,99.90
2023-04-14T00:50:38.902Z,99.90
2023-04-14T00:54:20.952Z,99.90
2023-04-14T00:58:03.510Z,99.90
2023-04-14T01:01:45.605Z,99.90
2023-04-14T01:05:27.538Z,99.90
2023-04-14T01:09:09.594Z,99.90
2023-04-14T01:13:12.314Z,99.90
2023-04-14T01:17:06.269Z,99.90
2023-04-14T01:20:55.001Z,99.90
2023-04-14T01:24:39.848Z,99.90
2023-04-14T01:28:59.461Z,99.90
2023-04-14T01:32:45.969Z,99.90
2023-04-14T01:36:34.584Z,99.90
2023-04-14T01:40:19.635Z,99.90
2023-04-14T01:44:03.189Z,99.90
2023-04-14T01:47:46.431Z,99.90
2023-04-14T01:51:32.229Z,99.90
2023-04-14T01:55:17.550Z,99.90
2023-04-14T01:59:02.041Z,99.90
2023-04-14T02:02:49.507Z,99.90
2023-04-14T02:06:32.817Z,99.90
2023-04-14T02:10:18.223Z,99.90
2023-04-14T02:14:01.078Z,99.90
2023-04-14T02:17:46.594Z,99.90
2023-04-14T02:21:31.264Z,99.90
2023-04-14T02:25:13.406Z,99.90
2023-04-14T02:29:05.993Z,99.90
2023-04-14T02:32:53.429Z,99.90
2023-04-14T02:36:43.048Z,99.90
2023-04-14T02:40:31.961Z,99.90
2023-04-14T02:44:21.371Z,99.90
2023-04-14T02:48:10.008Z,99.90
2023-04-14T02:51:53.388Z,99.90
2023-04-14T02:55:36.099Z,99.90
2023-04-14T02:59:19.044Z,99.90
2023-04-14T03:03:02.539Z,99.90
2023-04-14T03:06:45.348Z,99.90
2023-04-14T03:10:27.522Z,99.90
2023-04-14T03:14:10.345Z,99.90
2023-04-14T03:17:56.819Z,99.90
2023-04-14T03:21:39.439Z,99.90
2023-04-14T03:25:21.814Z,99.90
2023-04-14T03:29:06.555Z,99.90
2023-04-14T03:32:50.611Z,99.90
2023-04-14T03:36:32.978Z,99.90
2023-04-14T03:40:16.399Z,99.90
2023-04-14T03:43:59.684Z,99.90
2023-04-14T03:47:41.571Z,99.90
2023-04-14T03:51:27.489Z,99.90
2023-04-14T03:55:12.616Z,99.90
2023-04-14T03:58:56.979Z,99.90
2023-04-14T04:02:40.451Z,99.90
2023-04-14T04:06:22.675Z,99.90
2023-04-14T04:10:06.625Z,99.90
2023-04-14T04:13:49.474Z,99.90
2023-04-14T04:17:33.163Z,99.90
2023-04-14T04:21:18.066Z,99.90
2023-04-14T04:25:00.466Z,99.90
2023-04-14T04:28:42.501Z,99.90
2023-04-14T04:32:25.004Z,99.90
2023-04-14T04:36:07.521Z,99.90
2023-04-14T04:39:49.376Z,99.90
2023-04-14T04:43:31.214Z,99.90
2023-04-14T04:47:13.357Z,99.90
2023-04-14T04:50:55.491Z,99.90
2023-04-14T04:54:37.283Z,99.90
2023-04-14T04:58:19.105Z,99.90
2023-04-14T05:02:01.432Z,99.90
2023-04-14T05:05:43.253Z,99.90
2023-04-14T05:09:25.390Z,99.90
2023-04-14T05:13:07.163Z,99.90
2023-04-14T05:16:48.983Z,99.90
2023-04-14T05:20:31.229Z,99.90
2023-04-14T05:24:13.513Z,99.90
2023-04-14T05:27:55.452Z,99.90
2023-04-14T05:31:37.350Z,99.90
2023-04-14T05:35:19.156Z,99.90
2023-04-14T05:39:01.271Z,99.90
2023-04-14T05:42:43.033Z,99.90
2023-04-14T05:46:24.844Z,99.90
2023-04-14T05:50:07.992Z,99.90
2023-04-14T05:53:49.828Z,99.90
2023-04-14T05:57:35.855Z,99.90
2023-04-14T06:01:17.674Z,99.90
2023-04-14T06:05:02.740Z,99.90
2023-04-14T06:08:44.645Z,99.90
2023-04-14T06:12:26.436Z,99.90
2023-04-14T06:16:08.742Z,99.90
2023-04-14T06:19:50.776Z,99.90
2023-04-14T06:23:32.751Z,99.90
2023-04-14T06:27:15.711Z,99.90
2023-04-14T06:30:57.629Z,99.90
2023-04-14T06:34:39.433Z,99.90
2023-04-14T06:38:21.333Z,99.90
2023-04-14T06:42:03.162Z,99.90
2023-04-14T06:45:45.024Z,99.90
2023-04-14T06:49:26.890Z,99.90
2023-04-14T06:53:09.388Z,99.90
2023-04-14T06:56:51.414Z,99.90
2023-04-14T07:00:33.200Z,99.90
2023-04-14T07:04:15.621Z,99.90
2023-04-14T07:07:57.501Z,99.90
2023-04-14T07:11:40.437Z,99.90
2023-04-14T07:15:22.289Z,99.90
2023-04-14T07:19:04.088Z,99.90
2023-04-14T07:22:45.870Z,99.90
2023-04-14T07:26:27.685Z,99.90
2023-04-14T07:30:09.832Z,99.90
2023-04-14T07:33:51.770Z,99.90
2023-04-14T07:37:33.877Z,99.90
2023-04-14T07:41:15.992Z,99.90
2023-04-14T07:44:57.848Z,99.90
2023-04-14T07:48:39.775Z,99.90
2023-04-14T07:52:21.564Z,99.90
2023-04-14T07:56:03.819Z,99.90
2023-04-14T07:59:45.585Z,99.90
2023-04-14T08:03:27.517Z,99.90
2023-04-14T08:07:09.472Z,99.90
2023-04-14T08:10:51.273Z,99.90
2023-04-14T08:14:33.565Z,99.90
2023-04-14T08:18:15.564Z,99.90
2023-04-14T08:21:57.459Z,99.90
2023-04-14T08:25:39.270Z,99.90
2023-04-14T08:29:21.445Z,99.90
2023-04-14T08:33:03.413Z,99.90
2023-04-14T08:36:46.522Z,99.90
2023-04-14T08:40:43.680Z,99.90
2023-04-14T08:44:25.557Z,99.90
2023-04-14T08:48:08.079Z,99.90
2023-04-14T08:51:51.634Z,99.90
2023-04-14T08:55:34.226Z,99.90
2023-04-14T08:59:16.203Z,99.90
2023-04-14T09:02:58.707Z,99.90
2023-04-14T09:06:41.033Z,99.90
2023-04-14T09:10:23.250Z,99.90
2023-04-14T09:14:05.147Z,99.90
2023-04-14T09:17:47.082Z,99.90
2023-04-14T09:21:49.763Z,99.90
2023-04-14T09:25:31.192Z,99.90
2023-04-14T09:29:12.971Z,99.90
2023-04-14T09:32:56.596Z,99.90
2023-04-14T09:36:38.462Z,99.90
2023-04-14T09:40:30.627Z,99.90
2023-04-14T09:44:12.431Z,99.90
2023-04-14T09:48:06.697Z,99.90
2023-04-14T09:51:49.505Z,99.90
2023-04-14T09:55:31.475Z,99.90
2023-04-14T09:59:13.332Z,99.90
2023-04-14T10:02:58.036Z,99.90
2023-04-14T10:06:41.289Z,99.90
2023-04-14T10:10:23.601Z,99.90
2023-04-14T10:14:06.734Z,99.90
2023-04-14T10:17:48.616Z,99.90
2023-04-14T10:21:30.589Z,99.90
2023-04-14T10:25:13.669Z,99.90
2023-04-14T10:28:56.653Z,99.90
2023-04-14T10:32:40.629Z,99.90
2023-04-14T10:36:26.471Z,99.90
2023-04-14T10:40:08.724Z,99.90
2023-04-14T10:43:50.566Z,99.90
2023-04-14T10:47:33.471Z,99.90
2023-04-14T10:51:18.125Z,99.90
2023-04-14T10:55:09.367Z,99.90
2023-04-14T10:58:56.313Z,99.90
2023-04-14T11:02:38.283Z,99.90
2023-04-14T11:06:47.987Z,99.90
2023-04-14T11:10:33.158Z,99.90
2023-04-14T11:14:16.166Z,99.90
2023-04-14T11:18:14.640Z,99.90
2023-04-14T11:21:57.227Z,99.90
2023-04-14T11:25:40.402Z,99.90
2023-04-14T11:29:23.144Z,99.90
2023-04-14T11:33:05.112Z,99.90
2023-04-14T11:36:47.550Z,98.00
2023-04-14T11:40:29.526Z,96.90
2023-04-14T11:44:19.540Z,96.40
2023-04-14T11:48:06.217Z,95.10
2023-04-14T11:51:48.323Z,96.00
2023-04-14T11:55:30.793Z,95.10
2023-04-14T11:59:12.779Z,94.00
2023-04-14T12:02:55.274Z,94.20
2023-04-14T12:06:39.154Z,94.10
2023-04-14T12:10:22.211Z,92.30
2023-04-14T12:14:05.715Z,92.60
2023-04-14T12:17:47.628Z,92.50
2023-04-14T12:21:29.596Z,92.90
2023-04-14T12:25:12.629Z,93.70
2023-04-14T12:28:58.097Z,93.70
2023-04-14T12:32:44.214Z,95.10
2023-04-14T12:36:45.325Z,93.90
2023-04-14T12:40:41.187Z,94.80
2023-04-14T12:44:24.511Z,96.30
2023-04-14T12:48:06.915Z,95.20
2023-04-14T12:51:48.829Z,94.90
2023-04-14T12:55:31.943Z,95.10
2023-04-14T12:59:14.791Z,95.50
2023-04-14T13:02:56.929Z,95.40
2023-04-14T13:06:38.922Z,95.80
2023-04-14T13:10:21.942Z,95.40
2023-04-14T13:14:03.788Z,95.30
2023-04-14T13:17:45.582Z,95.20
2023-04-14T13:21:27.415Z,95.30
2023-04-14T13:25:09.416Z,95.30
2023-04-14T13:28:51.352Z,95.70
2023-04-14T13:32:33.181Z,95.10
2023-04-14T13:36:15.115Z,95.30
2023-04-14T13:39:56.966Z,95.10
2023-04-14T13:43:38.793Z,95.20
2023-04-14T13:47:20.568Z,95.10
2023-04-14T13:51:02.823Z,95.20
2023-04-14T13:54:44.669Z,95.00
2023-04-14T13:58:26.904Z,94.60
2023-04-14T14:02:08.792Z,95.10
2023-04-14T14:05:51.371Z,95.40
2023-04-14T14:09:33.132Z,95.50
2023-04-14T14:13:16.595Z,95.80
2023-04-14T14:16:59.768Z,95.60
2023-04-14T14:20:41.668Z,95.60
2023-04-14T14:24:23.465Z,95.70
2023-04-14T14:28:05.344Z,96.00
2023-04-14T14:31:47.302Z,96.20
2023-04-14T14:35:29.173Z,96.40
2023-04-14T14:39:11.119Z,96.90
2023-04-14T14:42:52.948Z,97.30
2023-04-14T14:46:34.831Z,97.40
2023-04-14T14:50:17.072Z,97.40
2023-04-14T14:54:09.160Z,97.90
2023-04-14T14:57:51.422Z,98.00
2023-04-14T15:01:33.402Z,98.10
2023-04-14T15:05:15.259Z,98.00
2023-04-14T15:08:57.273Z,97.90
2023-04-14T15:12:39.098Z,98.20
2023-04-14T15:16:21.193Z,98.30
2023-04-14T15:20:05.139Z,98.30
2023-04-14T15:23:47.089Z,98.00
2023-04-14T15:27:28.950Z,97.40
2023-04-14T15:31:11.160Z,97.00
2023-04-14T15:34:54.238Z,97.10
2023-04-14T15:38:36.478Z,96.90
2023-04-14T15:42:18.344Z,97.20
2023-04-14T15:46:00.366Z,96.90
2023-04-14T15:49:42.470Z,97.10
2023-04-14T15:53:28.383Z,96.80
2023-04-14T15:57:10.207Z,97.00
2023-04-14T16:00:52.013Z,97.00
2023-04-14T16:04:33.982Z,96.90
2023-04-14T16:08:16.919Z,97.00
2023-04-14T16:11:58.766Z,97.40
2023-04-14T16:15:40.847Z,97.80
2023-04-14T16:19:26.645Z,98.10
2023-04-14T16:23:08.526Z,98.50
2023-04-14T16:26:50.571Z,98.50
2023-04-14T16:30:32.432Z,98.70
2023-04-14T16:34:14.684Z,98.60
2023-04-14T16:37:56.981Z,98.90
2023-04-14T16:41:38.805Z,99.40
2023-04-14T16:45:20.836Z,99.20
2023-04-14T16:49:02.948Z,99.20
2023-04-14T16:52:44.934Z,99.10
2023-04-14T16:56:26.769Z,99.00
2023-04-14T17:00:12.229Z,98.80
2023-04-14T17:03:54.225Z,98.60
2023-04-14T17:07:36.297Z,98.50
2023-04-14T17:11:18.305Z,98.10
2023-04-14T17:15:00.878Z,98.00
2023-04-14T17:18:42.850Z,97.80
2023-04-14T17:22:24.691Z,97.70
2023-04-14T17:26:06.689Z,97.70
2023-04-14T17:29:48.512Z,97.90
2023-04-14T17:33:30.758Z,98.10
2023-04-14T17:37:12.591Z,98.30
2023-04-14T17:40:54.690Z,98.60
2023-04-14T17:44:36.681Z,98.60
2023-04-14T17:48:19.518Z,98.80
2023-04-14T17:52:01.328Z,98.90
2023-04-14T17:55:43.686Z,98.90
2023-04-14T17:59:25.961Z,99.10
2023-04-14T18:03:08.937Z,99.30
2023-04-14T18:06:51.908Z,99.50
2023-04-14T18:10:36.338Z,99.80
2023-04-14T18:14:19.286Z,99.90
2023-04-14T18:18:01.769Z,99.90
2023-04-14T18:21:44.997Z,99.90
2023-04-14T18:25:26.983Z,99.90
2023-04-14T18:29:08.893Z,99.90
2023-04-14T18:32:50.879Z,99.90
2023-04-14T18:36:33.424Z,99.90
2023-04-14T18:40:16.352Z,99.90
2023-04-14T18:44:00.216Z,99.90
2023-04-14T18:47:43.170Z,99.90
2023-04-14T18:51:26.047Z,99.90
2023-04-14T18:55:09.576Z,99.90
2023-04-14T18:58:52.593Z,99.90
2023-04-14T19:02:35.317Z,99.90
2023-04-14T19:06:17.372Z,99.90
2023-04-14T19:10:00.616Z,99.90
2023-04-14T19:13:43.202Z,99.90
2023-04-14T19:17:25.895Z,99.90
2023-04-14T19:21:09.546Z,99.90
2023-04-14T19:24:52.913Z,99.90
2023-04-14T19:28:35.715Z,99.90
2023-04-14T19:32:18.699Z,99.90
2023-04-14T19:36:01.474Z,99.90
2023-04-14T19:39:44.221Z,99.90
2023-04-14T19:43:26.953Z,99.90
2023-04-14T19:47:09.894Z,99.90
2023-04-14T19:50:55.242Z,99.90
2023-04-14T19:54:38.557Z,99.90
2023-04-14T19:58:21.693Z,99.90
2023-04-14T20:02:05.780Z,99.90
2023-04-14T20:05:56.866Z,99.90
2023-04-14T20:09:44.943Z,99.90
2023-04-14T20:13:30.496Z,99.90
2023-04-14T20:17:12.550Z,99.90
2023-04-14T20:20:55.717Z,99.90
2023-04-14T20:24:37.938Z,99.90
2023-04-14T20:28:21.480Z,99.90
2023-04-14T20:32:04.525Z,99.90
2023-04-14T20:35:46.560Z,99.90
2023-04-14T20:39:28.461Z,99.90
2023-04-14T20:43:10.476Z,99.90
2023-04-14T20:46:52.474Z,99.90
2023-04-14T20:50:34.301Z,99.90
2023-04-14T20:54:16.527Z,99.90
2023-04-14T20:57:58.857Z,99.90
2023-04-14T21:01:42.688Z,99.90
2023-04-14T21:05:26.334Z,99.90
2023-04-14T21:09:09.026Z,99.90
2023-04-14T21:15:31.655Z,99.90
2023-04-14T21:16:59.322Z,99.90
2023-04-14T21:20:43.467Z,99.90
2023-04-14T21:24:26.253Z,99.90
2023-04-14T21:28:08.702Z,99.90
2023-04-14T21:31:50.575Z,99.90
2023-04-14T21:35:32.412Z,99.90
2023-04-14T21:39:17.585Z,99.90
2023-04-14T21:42:59.453Z,99.90
2023-04-14T21:46:42.400Z,99.90
2023-04-14T21:50:24.551Z,99.90
2023-04-14T21:54:07.770Z,99.90
2023-04-14T21:57:50.494Z,99.90
2023-04-14T22:01:33.321Z,99.90
2023-04-14T22:05:16.754Z,99.90
2023-04-14T22:08:58.573Z,99.90
2023-04-14T22:12:42.263Z,99.90
2023-04-14T22:16:25.466Z,99.90
2023-04-14T22:20:08.185Z,99.90
2023-04-14T22:23:50.421Z,99.90
2023-04-14T22:27:34.699Z,99.90
2023-04-14T22:31:16.785Z,99.90
2023-04-14T22:34:59.052Z,99.90
2023-04-14T22:38:41.930Z,99.90
2023-04-14T22:42:23.748Z,99.90
2023-04-14T22:46:05.654Z,99.90
2023-04-14T22:49:47.463Z,99.90
2023-04-14T22:53:29.222Z,99.90
2023-04-14T22:57:11.482Z,99.90
2023-04-14T23:00:53.782Z,99.90
2023-04-14T23:04:35.661Z,99.90
2023-04-14T23:08:17.548Z,99.90
2023-04-14T23:12:01.214Z,99.90
2023-04-14T23:15:43.298Z,99.90
2023-04-14T23:19:25.331Z,99.90
2023-04-14T23:23:12.097Z,99.90
2023-04-14T23:26:54.165Z,99.90
2023-04-14T23:30:36.002Z,99.90
2023-04-14T23:34:17.806Z,99.90
2023-04-14T23:38:02.392Z,99.90
2023-04-14T23:41:44.257Z,99.90
2023-04-14T23:45:30.387Z,99.90
2023-04-14T23:49:24.195Z,99.90
2023-04-14T23:53:14.637Z,99.90
2023-04-14T23:56:56.782Z,99.90
